Montgomery Regional (Dannelly Field) Airport
KMGM : now visible

Airfield :











YOU CAN JOIN US ON...

 
LOGIN :

Register | Disclaimer

   EN    FR    IT 

 









Legend :    VFR   Marginal VFR   IFR   Intensive IFR   Very Intensive IFR
Visi :
Ceiling :
>= 8 km
>= 3000ft
5 to 8 km
1000 to 3000 ft
1500m to 5 km
500 to 1000 ft
800 to 1500m
200 to 500 ft
< 800m
< 200 ft
Symbols :   Thunderstorms  Fog  Heavy snow  Heavy precipitations  Wind > 20 kt






- Airport Elevation : 221 ft
- IATA code : MGM


KMGM - Montgomery Regional (Dannelly Field)

CURRENT METAR :
  • 080653Z AUTO 09006KT 10SM OVC055 13/06 A3021 RMK AO2 SLP227 T01330061

EXPIRED METARs :
  • 080553Z AUTO 09007KT 10SM FEW037 OVC050 14/06 A3021 RMK AO2 SLP230 T01440061 10156 20139 402060061 56004
  • 080453Z AUTO 09006KT 10SM FEW039 OVC049 14/07 A3022 RMK AO2 SLP231 T01440067

TAF KMGM
Valid from the 08 at 06:00 until the 09 at 06:00 UTC


080538Z 0806/0906 09005KT P6SM OVC045
FM081500 10012KT P6SM BKN050
FM082300 11011KT P6SM BKN030
FM090300 11010KT P6SM BKN019



MET'MAP, your aeronautical weather chart ! - Copyright ORBIFLY December 2007 - Disclaimer

ORBIFLY MET'MAP TEAM :

Programming & Development : Alexandra Zaïnal
Concept & original design : Baudouin d'Aumeries
Assistance for programming : Marc-Olivier Méhu
Technical & hardware support : Manuel Goepfert

Contact : metmap@orbifly.com




SOURCES & CREDITS :

   NOAA       Earth
Advisory